首页
METAR-TAF:

METAR-TAF

机场 :

新石垣機場

石垣, 日本

纬度: 24-20N, 经度: 124-10E, 海拔: 6米

当前天气观测

该预报发布于1小时和17分钟前的20:00 UTC
风速8节,风向南转西南
温度 29°C
湿度 94%
气压 1010 hPa
能见度10公里或以上
多云层高于1300英尺

METAR: ROIG 232000Z AUTO 20008KT 9999 BKN013 29/28 Q1010

时间: 06:17 (21:17 UTC)

预报

该预报发布于4小时和12分钟前的17:05 UTC
预报有效从23日的 18点(UTC)到 25日的 00点(UTC)
风速12节,风向南转西南
能见度10公里或以上
少量云层高于1000英尺
多云层高于1500英尺

TAF: ROIG 231705Z 2318/2500 20012KT 9999 FEW010 BKN015

超过4000个机场的气象观测和天气预报(METAR&TAF报告)。

可查询的气象台以黄色和红色小点在地图上表示。

将鼠标移到小点上方,可查看气象台名称。

然后点击查看天气观测和预报。

如需切换地图:点击带黑十字的绿色按钮放大地图;点击带横线的绿色按钮缩小地图;或者点击绿色箭头查看邻近地区的地图。


METAR-TAF: